sensor_id;sensor_type;location;lat;lon;timestamp;P1;durP1;ratioP1;P2;durP2;ratioP2
35126;SDS011;21300;52.006;5.798;2022-07-01T00:01:27;9.68;;;8.50;;
35126;SDS011;21300;52.006;5.798;2022-07-01T00:03:52;9.40;;;8.32;;
35126;SDS011;21300;52.006;5.798;2022-07-01T00:06:18;10.32;;;8.70;;
35126;SDS011;21300;52.006;5.798;2022-07-01T00:08:45;9.90;;;8.90;;
35126;SDS011;21300;52.006;5.798;2022-07-01T00:11:11;9.77;;;8.70;;
35126;SDS011;21300;52.006;5.798;2022-07-01T00:13:37;9.65;;;8.70;;
35126;SDS011;21300;52.006;5.798;2022-07-01T00:16:02;9.90;;;8.88;;
35126;SDS011;21300;52.006;5.798;2022-07-01T00:18:28;11.50;;;9.07;;
35126;SDS011;21300;52.006;5.798;2022-07-01T00:20:54;11.75;;;9.35;;
35126;SDS011;21300;52.006;5.798;2022-07-01T00:23:20;9.88;;;8.70;;
35126;SDS011;21300;52.006;5.798;2022-07-01T00:25:46;11.68;;;9.50;;
35126;SDS011;21300;52.006;5.798;2022-07-01T00:28:12;10.55;;;9.25;;
35126;SDS011;21300;52.006;5.798;2022-07-01T00:30:37;9.95;;;8.98;;
35126;SDS011;21300;52.006;5.798;2022-07-01T00:33:03;10.38;;;9.30;;
35126;SDS011;21300;52.006;5.798;2022-07-01T00:35:30;11.32;;;10.18;;
35126;SDS011;21300;52.006;5.798;2022-07-01T00:38:05;10.82;;;9.05;;
35126;SDS011;21300;52.006;5.798;2022-07-01T00:40:30;11.45;;;10.32;;
35126;SDS011;21300;52.006;5.798;2022-07-01T00:42:56;12.05;;;10.63;;
35126;SDS011;21300;52.006;5.798;2022-07-01T00:45:22;12.05;;;10.75;;
35126;SDS011;21300;52.006;5.798;2022-07-01T00:47:47;12.63;;;11.05;;
35126;SDS011;21300;52.006;5.798;2022-07-01T00:50:14;12.85;;;11.10;;
35126;SDS011;21300;52.006;5.798;2022-07-01T00:52:41;12.70;;;10.95;;
35126;SDS011;21300;52.006;5.798;2022-07-01T00:55:09;12.82;;;11.50;;
35126;SDS011;21300;52.006;5.798;2022-07-01T00:57:36;12.52;;;11.30;;
35126;SDS011;21300;52.006;5.798;2022-07-01T01:00:04;14.32;;;11.90;;
35126;SDS011;21300;52.006;5.798;2022-07-01T01:02:44;15.60;;;11.98;;
35126;SDS011;21300;52.006;5.798;2022-07-01T01:05:10;14.00;;;12.60;;
35126;SDS011;21300;52.006;5.798;2022-07-01T01:07:36;14.90;;;12.70;;
35126;SDS011;21300;52.006;5.798;2022-07-01T01:10:02;13.88;;;12.45;;
35126;SDS011;21300;52.006;5.798;2022-07-01T01:12:28;14.25;;;12.75;;
35126;SDS011;21300;52.006;5.798;2022-07-01T01:14:55;15.25;;;13.65;;
35126;SDS011;21300;52.006;5.798;2022-07-01T01:17:21;15.82;;;13.88;;
35126;SDS011;21300;52.006;5.798;2022-07-01T01:19:47;17.73;;;15.27;;
35126;SDS011;21300;52.006;5.798;2022-07-01T01:22:14;17.92;;;16.10;;
35126;SDS011;21300;52.006;5.798;2022-07-01T01:24:41;22.38;;;18.95;;
35126;SDS011;21300;52.006;5.798;2022-07-01T01:27:08;22.98;;;20.38;;
35126;SDS011;21300;52.006;5.798;2022-07-01T01:29:34;23.23;;;20.77;;
35126;SDS011;21300;52.006;5.798;2022-07-01T01:32:01;28.13;;;23.00;;
35126;SDS011;21300;52.006;5.798;2022-07-01T01:34:27;28.65;;;22.95;;
35126;SDS011;21300;52.006;5.798;2022-07-01T01:36:53;29.95;;;24.80;;
35126;SDS011;21300;52.006;5.798;2022-07-01T01:39:19;28.98;;;23.80;;
35126;SDS011;21300;52.006;5.798;2022-07-01T01:41:46;26.95;;;24.05;;
35126;SDS011;21300;52.006;5.798;2022-07-01T01:44:12;29.90;;;25.52;;
35126;SDS011;21300;52.006;5.798;2022-07-01T01:46:38;32.05;;;26.13;;
35126;SDS011;21300;52.006;5.798;2022-07-01T01:49:04;28.40;;;25.35;;
35126;SDS011;21300;52.006;5.798;2022-07-01T01:51:31;29.67;;;26.50;;
35126;SDS011;21300;52.006;5.798;2022-07-01T01:53:57;31.25;;;27.85;;
35126;SDS011;21300;52.006;5.798;2022-07-01T01:56:24;31.40;;;27.17;;
35126;SDS011;21300;52.006;5.798;2022-07-01T01:58:50;27.88;;;24.58;;
35126;SDS011;21300;52.006;5.798;2022-07-01T02:01:16;31.02;;;26.00;;
35126;SDS011;21300;52.006;5.798;2022-07-01T02:03:43;29.20;;;26.20;;
35126;SDS011;21300;52.006;5.798;2022-07-01T02:06:10;28.48;;;25.50;;
35126;SDS011;21300;52.006;5.798;2022-07-01T02:08:39;28.90;;;25.42;;
35126;SDS011;21300;52.006;5.798;2022-07-01T02:11:06;28.45;;;25.55;;
35126;SDS011;21300;52.006;5.798;2022-07-01T02:13:32;29.73;;;26.15;;
35126;SDS011;21300;52.006;5.798;2022-07-01T02:15:58;27.17;;;24.25;;
35126;SDS011;21300;52.006;5.798;2022-07-01T02:18:23;29.15;;;25.83;;
35126;SDS011;21300;52.006;5.798;2022-07-01T02:20:49;31.75;;;27.45;;
35126;SDS011;21300;52.006;5.798;2022-07-01T02:23:15;29.75;;;26.58;;
35126;SDS011;21300;52.006;5.798;2022-07-01T02:25:41;30.13;;;25.85;;
35126;SDS011;21300;52.006;5.798;2022-07-01T02:28:07;29.58;;;26.42;;
35126;SDS011;21300;52.006;5.798;2022-07-01T02:30:34;30.00;;;26.77;;
35126;SDS011;21300;52.006;5.798;2022-07-01T02:33:03;27.88;;;24.85;;
35126;SDS011;21300;52.006;5.798;2022-07-01T02:35:30;27.45;;;24.58;;
35126;SDS011;21300;52.006;5.798;2022-07-01T02:38:00;27.77;;;24.85;;
35126;SDS011;21300;52.006;5.798;2022-07-01T02:40:26;27.98;;;24.98;;
35126;SDS011;21300;52.006;5.798;2022-07-01T02:42:52;27.90;;;25.00;;
35126;SDS011;21300;52.006;5.798;2022-07-01T02:45:18;28.10;;;25.08;;
35126;SDS011;21300;52.006;5.798;2022-07-01T02:47:43;27.83;;;24.92;;
35126;SDS011;21300;52.006;5.798;2022-07-01T02:50:10;30.25;;;24.73;;
35126;SDS011;21300;52.006;5.798;2022-07-01T02:52:38;26.67;;;23.92;;
35126;SDS011;21300;52.006;5.798;2022-07-01T02:55:06;27.48;;;24.50;;
35126;SDS011;21300;52.006;5.798;2022-07-01T02:57:34;27.83;;;24.75;;
35126;SDS011;21300;52.006;5.798;2022-07-01T03:00:00;28.15;;;25.20;;
35126;SDS011;21300;52.006;5.798;2022-07-01T03:02:26;29.25;;;25.25;;
35126;SDS011;21300;52.006;5.798;2022-07-01T03:04:52;29.17;;;24.27;;
35126;SDS011;21300;52.006;5.798;2022-07-01T03:07:18;29.20;;;24.92;;
35126;SDS011;21300;52.006;5.798;2022-07-01T03:09:45;25.08;;;21.92;;
35126;SDS011;21300;52.006;5.798;2022-07-01T03:12:11;26.98;;;24.05;;
35126;SDS011;21300;52.006;5.798;2022-07-01T03:14:50;30.50;;;23.98;;
35126;SDS011;21300;52.006;5.798;2022-07-01T03:17:21;28.55;;;25.23;;
35126;SDS011;21300;52.006;5.798;2022-07-01T03:19:47;27.88;;;23.85;;
35126;SDS011;21300;52.006;5.798;2022-07-01T03:22:13;26.10;;;23.10;;
35126;SDS011;21300;52.006;5.798;2022-07-01T03:24:39;27.33;;;23.30;;
35126;SDS011;21300;52.006;5.798;2022-07-01T03:27:05;27.50;;;23.15;;
35126;SDS011;21300;52.006;5.798;2022-07-01T03:29:31;28.63;;;24.08;;
35126;SDS011;21300;52.006;5.798;2022-07-01T03:31:56;28.20;;;23.52;;
35126;SDS011;21300;52.006;5.798;2022-07-01T03:34:22;29.02;;;23.55;;
35126;SDS011;21300;52.006;5.798;2022-07-01T03:36:47;26.30;;;22.80;;
35126;SDS011;21300;52.006;5.798;2022-07-01T03:39:13;29.23;;;23.92;;
35126;SDS011;21300;52.006;5.798;2022-07-01T03:41:39;29.50;;;23.25;;
35126;SDS011;21300;52.006;5.798;2022-07-01T03:44:05;29.35;;;23.45;;
35126;SDS011;21300;52.006;5.798;2022-07-01T03:46:33;28.50;;;24.55;;
35126;SDS011;21300;52.006;5.798;2022-07-01T03:49:18;27.70;;;23.00;;
35126;SDS011;21300;52.006;5.798;2022-07-01T03:51:43;29.05;;;23.38;;
35126;SDS011;21300;52.006;5.798;2022-07-01T03:54:09;31.25;;;24.15;;
35126;SDS011;21300;52.006;5.798;2022-07-01T03:56:53;30.48;;;23.60;;
35126;SDS011;21300;52.006;5.798;2022-07-01T03:59:19;26.70;;;22.65;;
35126;SDS011;21300;52.006;5.798;2022-07-01T04:01:44;31.35;;;22.98;;
35126;SDS011;21300;52.006;5.798;2022-07-01T04:04:10;30.75;;;23.73;;
35126;SDS011;21300;52.006;5.798;2022-07-01T04:06:36;28.73;;;23.70;;
35126;SDS011;21300;52.006;5.798;2022-07-01T04:09:02;29.92;;;23.27;;
35126;SDS011;21300;52.006;5.798;2022-07-01T04:11:28;29.73;;;23.25;;
35126;SDS011;21300;52.006;5.798;2022-07-01T04:13:54;26.42;;;22.17;;
35126;SDS011;21300;52.006;5.798;2022-07-01T04:16:21;29.20;;;23.63;;
35126;SDS011;21300;52.006;5.798;2022-07-01T04:18:48;28.30;;;23.38;;
35126;SDS011;21300;52.006;5.798;2022-07-01T04:21:14;26.10;;;22.15;;
35126;SDS011;21300;52.006;5.798;2022-07-01T04:23:58;25.98;;;21.77;;
35126;SDS011;21300;52.006;5.798;2022-07-01T04:26:24;27.40;;;22.58;;
35126;SDS011;21300;52.006;5.798;2022-07-01T04:28:51;26.15;;;23.33;;
35126;SDS011;21300;52.006;5.798;2022-07-01T04:31:17;25.27;;;22.13;;
35126;SDS011;21300;52.006;5.798;2022-07-01T04:33:44;28.48;;;23.95;;
35126;SDS011;21300;52.006;5.798;2022-07-01T04:36:10;26.20;;;22.95;;
35126;SDS011;21300;52.006;5.798;2022-07-01T04:38:36;29.33;;;22.27;;
35126;SDS011;21300;52.006;5.798;2022-07-01T04:41:39;27.52;;;22.55;;
35126;SDS011;21300;52.006;5.798;2022-07-01T04:44:27;25.80;;;21.95;;
35126;SDS011;21300;52.006;5.798;2022-07-01T04:46:54;27.95;;;21.85;;
35126;SDS011;21300;52.006;5.798;2022-07-01T04:49:20;28.80;;;21.90;;
35126;SDS011;21300;52.006;5.798;2022-07-01T04:51:46;27.63;;;22.35;;
35126;SDS011;21300;52.006;5.798;2022-07-01T04:54:12;28.88;;;23.15;;
35126;SDS011;21300;52.006;5.798;2022-07-01T04:56:37;27.85;;;21.95;;
35126;SDS011;21300;52.006;5.798;2022-07-01T04:59:03;28.73;;;20.80;;
35126;SDS011;21300;52.006;5.798;2022-07-01T05:01:30;29.70;;;22.60;;
35126;SDS011;21300;52.006;5.798;2022-07-01T05:03:56;29.73;;;21.63;;
35126;SDS011;21300;52.006;5.798;2022-07-01T05:06:23;31.63;;;22.17;;
35126;SDS011;21300;52.006;5.798;2022-07-01T05:08:49;25.52;;;19.83;;
35126;SDS011;21300;52.006;5.798;2022-07-01T05:11:15;30.60;;;21.85;;
35126;SDS011;21300;52.006;5.798;2022-07-01T05:13:41;26.52;;;21.63;;
35126;SDS011;21300;52.006;5.798;2022-07-01T05:16:06;27.95;;;22.65;;
35126;SDS011;21300;52.006;5.798;2022-07-01T05:18:34;28.33;;;20.90;;
35126;SDS011;21300;52.006;5.798;2022-07-01T05:21:19;29.27;;;21.23;;
35126;SDS011;21300;52.006;5.798;2022-07-01T05:24:03;29.20;;;20.77;;
35126;SDS011;21300;52.006;5.798;2022-07-01T05:26:29;30.85;;;22.13;;
35126;SDS011;21300;52.006;5.798;2022-07-01T05:28:55;29.55;;;22.38;;
35126;SDS011;21300;52.006;5.798;2022-07-01T05:31:20;29.85;;;22.92;;
35126;SDS011;21300;52.006;5.798;2022-07-01T05:33:46;33.35;;;23.70;;
35126;SDS011;21300;52.006;5.798;2022-07-01T05:36:12;33.15;;;23.77;;
35126;SDS011;21300;52.006;5.798;2022-07-01T05:38:38;30.38;;;22.38;;
35126;SDS011;21300;52.006;5.798;2022-07-01T05:41:04;30.08;;;22.48;;
35126;SDS011;21300;52.006;5.798;2022-07-01T05:43:30;32.90;;;23.55;;
35126;SDS011;21300;52.006;5.798;2022-07-01T05:45:56;30.17;;;22.80;;
35126;SDS011;21300;52.006;5.798;2022-07-01T05:48:22;36.28;;;22.60;;
35126;SDS011;21300;52.006;5.798;2022-07-01T05:50:48;31.73;;;22.30;;
35126;SDS011;21300;52.006;5.798;2022-07-01T05:53:17;30.10;;;23.05;;
35126;SDS011;21300;52.006;5.798;2022-07-01T05:55:43;34.47;;;23.08;;
35126;SDS011;21300;52.006;5.798;2022-07-01T05:58:12;31.35;;;23.58;;
35126;SDS011;21300;52.006;5.798;2022-07-01T06:00:38;33.63;;;24.15;;
35126;SDS011;21300;52.006;5.798;2022-07-01T06:03:11;35.33;;;24.10;;
35126;SDS011;21300;52.006;5.798;2022-07-01T06:05:38;33.35;;;23.17;;
35126;SDS011;21300;52.006;5.798;2022-07-01T06:08:04;31.48;;;23.38;;
35126;SDS011;21300;52.006;5.798;2022-07-01T06:10:31;32.47;;;22.88;;
35126;SDS011;21300;52.006;5.798;2022-07-01T06:12:57;29.60;;;21.75;;
35126;SDS011;21300;52.006;5.798;2022-07-01T06:15:23;31.88;;;22.85;;
35126;SDS011;21300;52.006;5.798;2022-07-01T06:17:49;31.45;;;22.60;;
35126;SDS011;21300;52.006;5.798;2022-07-01T06:20:15;30.00;;;20.30;;
35126;SDS011;21300;52.006;5.798;2022-07-01T06:22:41;29.92;;;22.17;;
35126;SDS011;21300;52.006;5.798;2022-07-01T06:27:51;33.03;;;21.48;;
35126;SDS011;21300;52.006;5.798;2022-07-01T06:30:17;34.25;;;21.63;;
35126;SDS011;21300;52.006;5.798;2022-07-01T06:32:42;33.38;;;21.73;;
35126;SDS011;21300;52.006;5.798;2022-07-01T06:35:08;31.48;;;21.00;;
35126;SDS011;21300;52.006;5.798;2022-07-01T06:37:34;29.10;;;19.45;;
35126;SDS011;21300;52.006;5.798;2022-07-01T06:40:04;30.40;;;20.42;;
35126;SDS011;21300;52.006;5.798;2022-07-01T06:42:30;29.90;;;20.98;;
35126;SDS011;21300;52.006;5.798;2022-07-01T06:44:57;29.90;;;21.02;;
35126;SDS011;21300;52.006;5.798;2022-07-01T06:47:22;34.30;;;22.20;;
35126;SDS011;21300;52.006;5.798;2022-07-01T06:49:48;30.73;;;20.42;;
35126;SDS011;21300;52.006;5.798;2022-07-01T06:52:14;32.17;;;21.40;;
35126;SDS011;21300;52.006;5.798;2022-07-01T06:54:39;29.05;;;20.23;;
35126;SDS011;21300;52.006;5.798;2022-07-01T06:57:05;33.28;;;20.88;;
35126;SDS011;21300;52.006;5.798;2022-07-01T06:59:31;30.98;;;20.65;;
35126;SDS011;21300;52.006;5.798;2022-07-01T07:01:57;31.17;;;20.45;;
35126;SDS011;21300;52.006;5.798;2022-07-01T07:04:23;32.15;;;19.92;;
35126;SDS011;21300;52.006;5.798;2022-07-01T07:06:49;26.15;;;18.42;;
35126;SDS011;21300;52.006;5.798;2022-07-01T07:09:14;29.50;;;18.70;;
35126;SDS011;21300;52.006;5.798;2022-07-01T07:11:40;25.63;;;17.92;;
35126;SDS011;21300;52.006;5.798;2022-07-01T07:14:05;30.45;;;18.65;;
35126;SDS011;21300;52.006;5.798;2022-07-01T07:16:31;25.65;;;17.15;;
35126;SDS011;21300;52.006;5.798;2022-07-01T07:18:57;28.02;;;17.60;;
35126;SDS011;21300;52.006;5.798;2022-07-01T07:21:22;24.23;;;16.65;;
35126;SDS011;21300;52.006;5.798;2022-07-01T07:23:48;28.90;;;18.23;;
35126;SDS011;21300;52.006;5.798;2022-07-01T07:26:13;24.92;;;17.52;;
35126;SDS011;21300;52.006;5.798;2022-07-01T07:28:39;26.25;;;16.85;;
35126;SDS011;21300;52.006;5.798;2022-07-01T07:31:23;27.20;;;17.67;;
35126;SDS011;21300;52.006;5.798;2022-07-01T07:33:49;27.77;;;17.77;;
35126;SDS011;21300;52.006;5.798;2022-07-01T07:36:14;26.55;;;17.95;;
35126;SDS011;21300;52.006;5.798;2022-07-01T07:38:40;28.88;;;17.52;;
35126;SDS011;21300;52.006;5.798;2022-07-01T07:41:06;24.48;;;17.15;;
35126;SDS011;21300;52.006;5.798;2022-07-01T07:43:31;23.10;;;15.68;;
35126;SDS011;21300;52.006;5.798;2022-07-01T07:45:57;23.25;;;16.00;;
35126;SDS011;21300;52.006;5.798;2022-07-01T07:48:22;22.10;;;15.05;;
35126;SDS011;21300;52.006;5.798;2022-07-01T07:50:48;22.98;;;14.15;;
35126;SDS011;21300;52.006;5.798;2022-07-01T07:53:14;21.42;;;14.23;;
35126;SDS011;21300;52.006;5.798;2022-07-01T07:55:39;22.55;;;14.60;;
35126;SDS011;21300;52.006;5.798;2022-07-01T07:58:05;21.58;;;13.10;;
35126;SDS011;21300;52.006;5.798;2022-07-01T08:00:31;20.48;;;12.68;;
35126;SDS011;21300;52.006;5.798;2022-07-01T08:02:57;19.23;;;13.10;;
35126;SDS011;21300;52.006;5.798;2022-07-01T08:05:23;20.70;;;12.43;;
35126;SDS011;21300;52.006;5.798;2022-07-01T08:07:49;19.48;;;12.38;;
35126;SDS011;21300;52.006;5.798;2022-07-01T08:10:14;17.90;;;11.40;;
35126;SDS011;21300;52.006;5.798;2022-07-01T08:12:40;17.77;;;10.05;;
35126;SDS011;21300;52.006;5.798;2022-07-01T08:15:06;17.50;;;9.68;;
35126;SDS011;21300;52.006;5.798;2022-07-01T08:17:32;12.70;;;8.55;;
35126;SDS011;21300;52.006;5.798;2022-07-01T08:19:58;12.07;;;8.35;;
35126;SDS011;21300;52.006;5.798;2022-07-01T08:22:23;12.45;;;7.63;;
35126;SDS011;21300;52.006;5.798;2022-07-01T08:24:49;11.57;;;6.35;;
35126;SDS011;21300;52.006;5.798;2022-07-01T08:27:15;14.75;;;6.50;;
35126;SDS011;21300;52.006;5.798;2022-07-01T08:29:59;13.73;;;5.28;;
35126;SDS011;21300;52.006;5.798;2022-07-01T08:32:25;7.60;;;4.50;;
35126;SDS011;21300;52.006;5.798;2022-07-01T08:34:51;10.13;;;4.90;;
35126;SDS011;21300;52.006;5.798;2022-07-01T08:37:16;7.68;;;4.35;;
35126;SDS011;21300;52.006;5.798;2022-07-01T08:39:42;12.10;;;4.22;;
35126;SDS011;21300;52.006;5.798;2022-07-01T08:42:08;10.82;;;3.20;;
35126;SDS011;21300;52.006;5.798;2022-07-01T08:44:33;7.45;;;3.78;;
35126;SDS011;21300;52.006;5.798;2022-07-01T08:46:59;9.07;;;3.60;;
35126;SDS011;21300;52.006;5.798;2022-07-01T08:49:25;6.57;;;3.30;;
35126;SDS011;21300;52.006;5.798;2022-07-01T08:51:50;7.57;;;3.10;;
35126;SDS011;21300;52.006;5.798;2022-07-01T08:54:16;7.47;;;2.78;;
35126;SDS011;21300;52.006;5.798;2022-07-01T08:56:42;8.88;;;3.50;;
35126;SDS011;21300;52.006;5.798;2022-07-01T08:59:09;8.77;;;3.40;;
35126;SDS011;21300;52.006;5.798;2022-07-01T09:01:36;9.18;;;3.33;;
35126;SDS011;21300;52.006;5.798;2022-07-01T09:04:18;7.40;;;2.40;;
35126;SDS011;21300;52.006;5.798;2022-07-01T09:06:45;7.35;;;2.45;;
35126;SDS011;21300;52.006;5.798;2022-07-01T09:11:43;9.18;;;3.28;;
35126;SDS011;21300;52.006;5.798;2022-07-01T09:14:14;9.13;;;2.63;;
35126;SDS011;21300;52.006;5.798;2022-07-01T09:16:44;8.60;;;2.63;;
35126;SDS011;21300;52.006;5.798;2022-07-01T09:19:15;6.65;;;2.00;;
35126;SDS011;21300;52.006;5.798;2022-07-01T09:21:42;8.50;;;2.75;;
35126;SDS011;21300;52.006;5.798;2022-07-01T09:24:22;5.22;;;2.30;;
35126;SDS011;21300;52.006;5.798;2022-07-01T09:26:56;7.05;;;2.47;;
35126;SDS011;21300;52.006;5.798;2022-07-01T09:29:28;6.45;;;2.10;;
35126;SDS011;21300;52.006;5.798;2022-07-01T09:32:03;7.60;;;2.05;;
35126;SDS011;21300;52.006;5.798;2022-07-01T09:34:33;6.35;;;1.70;;
35126;SDS011;21300;52.006;5.798;2022-07-01T09:37:16;6.30;;;1.50;;
35126;SDS011;21300;52.006;5.798;2022-07-01T09:42:13;7.38;;;1.75;;
35126;SDS011;21300;52.006;5.798;2022-07-01T09:44:59;4.07;;;1.42;;
35126;SDS011;21300;52.006;5.798;2022-07-01T09:47:28;4.80;;;1.85;;
35126;SDS011;21300;52.006;5.798;2022-07-01T09:49:54;4.88;;;1.50;;
35126;SDS011;21300;52.006;5.798;2022-07-01T09:52:21;4.45;;;1.40;;
35126;SDS011;21300;52.006;5.798;2022-07-01T09:54:48;5.10;;;1.50;;
35126;SDS011;21300;52.006;5.798;2022-07-01T09:57:15;4.25;;;1.30;;
35126;SDS011;21300;52.006;5.798;2022-07-01T09:59:44;6.43;;;1.92;;
35126;SDS011;21300;52.006;5.798;2022-07-01T10:02:11;4.30;;;1.60;;
35126;SDS011;21300;52.006;5.798;2022-07-01T10:04:38;2.45;;;1.30;;
35126;SDS011;21300;52.006;5.798;2022-07-01T10:09:53;3.38;;;1.48;;
35126;SDS011;21300;52.006;5.798;2022-07-01T10:12:42;3.22;;;1.10;;
35126;SDS011;21300;52.006;5.798;2022-07-01T10:15:15;5.78;;;1.10;;
35126;SDS011;21300;52.006;5.798;2022-07-01T10:17:46;2.90;;;1.05;;
35126;SDS011;21300;52.006;5.798;2022-07-01T10:20:17;2.88;;;1.25;;
35126;SDS011;21300;52.006;5.798;2022-07-01T10:22:50;3.85;;;1.00;;
35126;SDS011;21300;52.006;5.798;2022-07-01T10:28:12;2.10;;;0.82;;
35126;SDS011;21300;52.006;5.798;2022-07-01T10:33:40;2.05;;;0.90;;
35126;SDS011;21300;52.006;5.798;2022-07-01T10:36:12;4.80;;;0.95;;
35126;SDS011;21300;52.006;5.798;2022-07-01T10:41:26;3.67;;;0.88;;
35126;SDS011;21300;52.006;5.798;2022-07-01T10:43:56;3.78;;;0.82;;
35126;SDS011;21300;52.006;5.798;2022-07-01T10:49:07;6.05;;;1.15;;
35126;SDS011;21300;52.006;5.798;2022-07-01T10:58:02;2.65;;;0.88;;
35126;SDS011;21300;52.006;5.798;2022-07-01T11:02:31;4.43;;;0.88;;
35126;SDS011;21300;52.006;5.798;2022-07-01T11:05:08;5.72;;;1.17;;
35126;SDS011;21300;52.006;5.798;2022-07-01T11:07:36;3.20;;;0.90;;
35126;SDS011;21300;52.006;5.798;2022-07-01T11:12:36;3.30;;;0.98;;
35126;SDS011;21300;52.006;5.798;2022-07-01T11:15:03;6.40;;;1.20;;
35126;SDS011;21300;52.006;5.798;2022-07-01T11:17:32;3.47;;;0.90;;
35126;SDS011;21300;52.006;5.798;2022-07-01T11:20:00;2.58;;;0.85;;
35126;SDS011;21300;52.006;5.798;2022-07-01T11:22:30;2.95;;;1.15;;
35126;SDS011;21300;52.006;5.798;2022-07-01T11:24:58;2.83;;;0.98;;
35126;SDS011;21300;52.006;5.798;2022-07-01T11:27:26;3.10;;;0.90;;
35126;SDS011;21300;52.006;5.798;2022-07-01T11:29:57;6.00;;;0.70;;
35126;SDS011;21300;52.006;5.798;2022-07-01T11:32:33;4.00;;;0.90;;
35126;SDS011;21300;52.006;5.798;2022-07-01T11:35:01;1.80;;;0.65;;
35126;SDS011;21300;52.006;5.798;2022-07-01T11:37:49;3.20;;;0.77;;
35126;SDS011;21300;52.006;5.798;2022-07-01T11:40:34;3.38;;;0.77;;
35126;SDS011;21300;52.006;5.798;2022-07-01T11:43:00;4.60;;;0.90;;
35126;SDS011;21300;52.006;5.798;2022-07-01T11:45:25;2.25;;;0.68;;
35126;SDS011;21300;52.006;5.798;2022-07-01T11:47:52;4.45;;;0.70;;
35126;SDS011;21300;52.006;5.798;2022-07-01T11:50:19;6.63;;;0.63;;
35126;SDS011;21300;52.006;5.798;2022-07-01T11:52:45;3.10;;;0.98;;
35126;SDS011;21300;52.006;5.798;2022-07-01T11:55:11;3.88;;;1.30;;
35126;SDS011;21300;52.006;5.798;2022-07-01T11:57:37;2.75;;;0.82;;
35126;SDS011;21300;52.006;5.798;2022-07-01T12:00:12;3.67;;;0.70;;
35126;SDS011;21300;52.006;5.798;2022-07-01T12:02:38;5.57;;;0.93;;
35126;SDS011;21300;52.006;5.798;2022-07-01T12:05:04;2.65;;;0.80;;
35126;SDS011;21300;52.006;5.798;2022-07-01T12:07:30;3.08;;;0.80;;
35126;SDS011;21300;52.006;5.798;2022-07-01T12:09:57;4.32;;;0.90;;
35126;SDS011;21300;52.006;5.798;2022-07-01T12:12:23;1.75;;;0.60;;
35126;SDS011;21300;52.006;5.798;2022-07-01T12:14:56;2.42;;;0.70;;
35126;SDS011;21300;52.006;5.798;2022-07-01T12:17:24;3.58;;;0.80;;
35126;SDS011;21300;52.006;5.798;2022-07-01T12:19:51;3.15;;;0.80;;
35126;SDS011;21300;52.006;5.798;2022-07-01T12:22:35;4.35;;;0.82;;
35126;SDS011;21300;52.006;5.798;2022-07-01T12:25:04;4.43;;;1.00;;
35126;SDS011;21300;52.006;5.798;2022-07-01T12:27:38;2.58;;;0.80;;
35126;SDS011;21300;52.006;5.798;2022-07-01T12:30:09;3.10;;;0.65;;
35126;SDS011;21300;52.006;5.798;2022-07-01T12:32:37;3.78;;;1.17;;
35126;SDS011;21300;52.006;5.798;2022-07-01T12:35:05;2.55;;;0.70;;
35126;SDS011;21300;52.006;5.798;2022-07-01T12:37:55;5.60;;;1.10;;
35126;SDS011;21300;52.006;5.798;2022-07-01T12:42:48;3.42;;;0.88;;
35126;SDS011;21300;52.006;5.798;2022-07-01T12:45:15;3.50;;;0.80;;
35126;SDS011;21300;52.006;5.798;2022-07-01T12:47:45;3.30;;;0.77;;
35126;SDS011;21300;52.006;5.798;2022-07-01T12:55:25;3.03;;;0.67;;
35126;SDS011;21300;52.006;5.798;2022-07-01T12:57:55;4.43;;;0.95;;
35126;SDS011;21300;52.006;5.798;2022-07-01T13:00:24;3.40;;;0.98;;
35126;SDS011;21300;52.006;5.798;2022-07-01T13:02:52;2.40;;;1.05;;
35126;SDS011;21300;52.006;5.798;2022-07-01T13:05:19;3.80;;;1.23;;
35126;SDS011;21300;52.006;5.798;2022-07-01T13:07:45;6.45;;;1.70;;
35126;SDS011;21300;52.006;5.798;2022-07-01T13:10:11;5.38;;;1.23;;
35126;SDS011;21300;52.006;5.798;2022-07-01T13:12:39;5.00;;;1.20;;
35126;SDS011;21300;52.006;5.798;2022-07-01T13:15:05;4.18;;;1.27;;
35126;SDS011;21300;52.006;5.798;2022-07-01T13:17:31;3.40;;;1.13;;
35126;SDS011;21300;52.006;5.798;2022-07-01T13:19:56;4.25;;;1.33;;
35126;SDS011;21300;52.006;5.798;2022-07-01T13:22:22;4.13;;;1.38;;
35126;SDS011;21300;52.006;5.798;2022-07-01T13:24:48;5.50;;;1.40;;
35126;SDS011;21300;52.006;5.798;2022-07-01T13:27:14;3.92;;;1.17;;
35126;SDS011;21300;52.006;5.798;2022-07-01T13:29:39;4.10;;;1.30;;
35126;SDS011;21300;52.006;5.798;2022-07-01T13:32:05;5.60;;;1.20;;
35126;SDS011;21300;52.006;5.798;2022-07-01T13:34:33;4.10;;;0.93;;
35126;SDS011;21300;52.006;5.798;2022-07-01T13:37:17;5.68;;;0.80;;
35126;SDS011;21300;52.006;5.798;2022-07-01T13:39:43;4.60;;;0.98;;
35126;SDS011;21300;52.006;5.798;2022-07-01T13:42:09;3.00;;;0.88;;
35126;SDS011;21300;52.006;5.798;2022-07-01T13:44:35;3.03;;;0.82;;
35126;SDS011;21300;52.006;5.798;2022-07-01T13:47:00;3.33;;;0.90;;
35126;SDS011;21300;52.006;5.798;2022-07-01T13:49:27;2.95;;;0.80;;
35126;SDS011;21300;52.006;5.798;2022-07-01T13:51:53;4.72;;;0.82;;
35126;SDS011;21300;52.006;5.798;2022-07-01T13:54:19;5.07;;;0.80;;
35126;SDS011;21300;52.006;5.798;2022-07-01T13:56:45;2.55;;;0.63;;
35126;SDS011;21300;52.006;5.798;2022-07-01T13:59:10;2.25;;;0.70;;
35126;SDS011;21300;52.006;5.798;2022-07-01T14:01:36;5.13;;;0.93;;
35126;SDS011;21300;52.006;5.798;2022-07-01T14:04:02;4.05;;;0.70;;
35126;SDS011;21300;52.006;5.798;2022-07-01T14:06:27;2.42;;;0.80;;
35126;SDS011;21300;52.006;5.798;2022-07-01T14:08:53;1.95;;;0.82;;
35126;SDS011;21300;52.006;5.798;2022-07-01T14:11:19;2.20;;;0.70;;
35126;SDS011;21300;52.006;5.798;2022-07-01T14:13:44;3.83;;;1.13;;
35126;SDS011;21300;52.006;5.798;2022-07-01T14:16:10;4.10;;;0.77;;
35126;SDS011;21300;52.006;5.798;2022-07-01T14:18:36;4.60;;;0.88;;
35126;SDS011;21300;52.006;5.798;2022-07-01T14:21:02;3.65;;;1.42;;
35126;SDS011;21300;52.006;5.798;2022-07-01T14:23:29;3.08;;;0.85;;
35126;SDS011;21300;52.006;5.798;2022-07-01T14:25:55;2.75;;;0.75;;
35126;SDS011;21300;52.006;5.798;2022-07-01T14:28:20;5.25;;;0.90;;
35126;SDS011;21300;52.006;5.798;2022-07-01T14:30:46;4.07;;;1.40;;
35126;SDS011;21300;52.006;5.798;2022-07-01T14:33:12;3.10;;;0.80;;
35126;SDS011;21300;52.006;5.798;2022-07-01T14:35:38;5.22;;;1.00;;
35126;SDS011;21300;52.006;5.798;2022-07-01T14:38:04;5.90;;;0.77;;
35126;SDS011;21300;52.006;5.798;2022-07-01T14:40:32;3.25;;;1.08;;
35126;SDS011;21300;52.006;5.798;2022-07-01T14:43:00;3.45;;;0.80;;
35126;SDS011;21300;52.006;5.798;2022-07-01T14:45:25;2.72;;;0.90;;
35126;SDS011;21300;52.006;5.798;2022-07-01T14:47:51;3.67;;;1.17;;
35126;SDS011;21300;52.006;5.798;2022-07-01T14:50:17;3.83;;;1.05;;
35126;SDS011;21300;52.006;5.798;2022-07-01T14:52:43;4.15;;;0.90;;
35126;SDS011;21300;52.006;5.798;2022-07-01T14:55:08;3.97;;;0.80;;
35126;SDS011;21300;52.006;5.798;2022-07-01T14:57:34;4.50;;;1.10;;
35126;SDS011;21300;52.006;5.798;2022-07-01T15:00:01;5.03;;;0.98;;
35126;SDS011;21300;52.006;5.798;2022-07-01T15:02:28;2.30;;;0.65;;
35126;SDS011;21300;52.006;5.798;2022-07-01T15:04:54;3.80;;;0.80;;
35126;SDS011;21300;52.006;5.798;2022-07-01T15:07:19;4.15;;;0.90;;
35126;SDS011;21300;52.006;5.798;2022-07-01T15:09:45;5.25;;;1.48;;
35126;SDS011;21300;52.006;5.798;2022-07-01T15:12:11;3.80;;;1.17;;
35126;SDS011;21300;52.006;5.798;2022-07-01T15:14:37;4.63;;;1.00;;
35126;SDS011;21300;52.006;5.798;2022-07-01T15:17:03;2.60;;;1.08;;